sensor_id;sensor_type;location;lat;lon;timestamp;P1;durP1;ratioP1;P2;durP2;ratioP2
74487;SDS011;63019;51.080;13.642;2023-06-24T00:00:56;11.48;;;6.22;;
74487;SDS011;63019;51.080;13.642;2023-06-24T00:01:58;10.52;;;5.85;;
74487;SDS011;63019;51.080;13.642;2023-06-24T00:03:00;10.77;;;5.93;;
74487;SDS011;63019;51.080;13.642;2023-06-24T00:04:04;13.80;;;5.83;;
74487;SDS011;63019;51.080;13.642;2023-06-24T00:05:06;14.13;;;6.10;;
74487;SDS011;63019;51.080;13.642;2023-06-24T00:06:09;13.23;;;6.05;;
74487;SDS011;63019;51.080;13.642;2023-06-24T00:07:11;14.18;;;6.10;;
74487;SDS011;63019;51.080;13.642;2023-06-24T00:08:13;12.07;;;5.47;;
74487;SDS011;63019;51.080;13.642;2023-06-24T00:09:15;16.95;;;6.93;;
74487;SDS011;63019;51.080;13.642;2023-06-24T00:10:17;17.30;;;6.13;;
74487;SDS011;63019;51.080;13.642;2023-06-24T00:11:19;12.23;;;6.00;;
74487;SDS011;63019;51.080;13.642;2023-06-24T00:12:21;12.02;;;6.65;;
74487;SDS011;63019;51.080;13.642;2023-06-24T00:13:22;13.93;;;6.20;;
74487;SDS011;63019;51.080;13.642;2023-06-24T00:14:25;11.63;;;6.40;;
74487;SDS011;63019;51.080;13.642;2023-06-24T00:15:27;12.52;;;6.50;;
74487;SDS011;63019;51.080;13.642;2023-06-24T00:16:29;13.07;;;6.40;;
74487;SDS011;63019;51.080;13.642;2023-06-24T00:17:31;17.55;;;6.43;;
74487;SDS011;63019;51.080;13.642;2023-06-24T00:18:37;10.07;;;6.13;;
74487;SDS011;63019;51.080;13.642;2023-06-24T00:19:42;13.70;;;6.20;;
74487;SDS011;63019;51.080;13.642;2023-06-24T00:20:45;11.13;;;5.95;;
74487;SDS011;63019;51.080;13.642;2023-06-24T00:21:48;14.68;;;5.90;;
74487;SDS011;63019;51.080;13.642;2023-06-24T00:22:52;17.88;;;6.25;;
74487;SDS011;63019;51.080;13.642;2023-06-24T00:23:54;12.98;;;6.22;;
74487;SDS011;63019;51.080;13.642;2023-06-24T00:24:55;15.27;;;6.20;;
74487;SDS011;63019;51.080;13.642;2023-06-24T00:25:58;15.50;;;6.50;;
74487;SDS011;63019;51.080;13.642;2023-06-24T00:27:00;18.73;;;6.38;;
74487;SDS011;63019;51.080;13.642;2023-06-24T00:28:01;18.95;;;6.18;;
74487;SDS011;63019;51.080;13.642;2023-06-24T00:29:03;16.88;;;7.15;;
74487;SDS011;63019;51.080;13.642;2023-06-24T00:30:05;15.68;;;6.57;;
74487;SDS011;63019;51.080;13.642;2023-06-24T00:31:07;19.42;;;6.93;;
74487;SDS011;63019;51.080;13.642;2023-06-24T00:32:10;13.13;;;6.63;;
74487;SDS011;63019;51.080;13.642;2023-06-24T00:33:11;14.77;;;6.45;;
74487;SDS011;63019;51.080;13.642;2023-06-24T00:34:14;14.80;;;7.13;;
74487;SDS011;63019;51.080;13.642;2023-06-24T00:35:17;15.87;;;7.00;;
74487;SDS011;63019;51.080;13.642;2023-06-24T00:36:19;17.02;;;7.20;;
74487;SDS011;63019;51.080;13.642;2023-06-24T00:37:22;15.80;;;7.70;;
74487;SDS011;63019;51.080;13.642;2023-06-24T00:38:23;17.85;;;6.75;;
74487;SDS011;63019;51.080;13.642;2023-06-24T00:39:25;17.83;;;6.90;;
74487;SDS011;63019;51.080;13.642;2023-06-24T00:40:27;14.25;;;7.50;;
74487;SDS011;63019;51.080;13.642;2023-06-24T00:41:29;17.83;;;7.47;;
74487;SDS011;63019;51.080;13.642;2023-06-24T00:42:32;15.57;;;7.07;;
74487;SDS011;63019;51.080;13.642;2023-06-24T00:43:34;16.92;;;8.23;;
74487;SDS011;63019;51.080;13.642;2023-06-24T00:44:36;19.33;;;8.32;;
74487;SDS011;63019;51.080;13.642;2023-06-24T00:45:38;20.13;;;8.60;;
74487;SDS011;63019;51.080;13.642;2023-06-24T00:46:40;21.63;;;7.75;;
74487;SDS011;63019;51.080;13.642;2023-06-24T00:47:42;17.08;;;7.50;;
74487;SDS011;63019;51.080;13.642;2023-06-24T00:48:45;16.38;;;7.93;;
74487;SDS011;63019;51.080;13.642;2023-06-24T00:49:46;21.08;;;8.63;;
74487;SDS011;63019;51.080;13.642;2023-06-24T00:50:49;21.70;;;8.30;;
74487;SDS011;63019;51.080;13.642;2023-06-24T00:51:51;18.70;;;7.72;;
74487;SDS011;63019;51.080;13.642;2023-06-24T00:52:53;23.08;;;7.80;;
74487;SDS011;63019;51.080;13.642;2023-06-24T00:53:55;21.35;;;8.30;;
74487;SDS011;63019;51.080;13.642;2023-06-24T00:54:58;18.40;;;9.07;;
74487;SDS011;63019;51.080;13.642;2023-06-24T00:55:59;14.47;;;7.50;;
74487;SDS011;63019;51.080;13.642;2023-06-24T00:57:04;15.00;;;7.82;;
74487;SDS011;63019;51.080;13.642;2023-06-24T00:58:09;17.10;;;8.20;;
74487;SDS011;63019;51.080;13.642;2023-06-24T00:59:15;18.45;;;7.82;;
74487;SDS011;63019;51.080;13.642;2023-06-24T01:00:18;21.38;;;7.93;;
74487;SDS011;63019;51.080;13.642;2023-06-24T01:01:21;15.85;;;8.27;;
74487;SDS011;63019;51.080;13.642;2023-06-24T01:02:23;19.17;;;9.15;;
74487;SDS011;63019;51.080;13.642;2023-06-24T01:03:29;17.15;;;8.43;;
74487;SDS011;63019;51.080;13.642;2023-06-24T01:04:32;18.30;;;8.80;;
74487;SDS011;63019;51.080;13.642;2023-06-24T01:05:34;21.65;;;8.80;;
74487;SDS011;63019;51.080;13.642;2023-06-24T01:06:37;20.20;;;8.53;;
74487;SDS011;63019;51.080;13.642;2023-06-24T01:07:45;16.08;;;8.43;;
74487;SDS011;63019;51.080;13.642;2023-06-24T01:08:56;18.92;;;9.18;;
74487;SDS011;63019;51.080;13.642;2023-06-24T01:09:58;18.67;;;9.10;;
74487;SDS011;63019;51.080;13.642;2023-06-24T01:11:01;16.58;;;8.68;;
74487;SDS011;63019;51.080;13.642;2023-06-24T01:12:03;21.17;;;9.15;;
74487;SDS011;63019;51.080;13.642;2023-06-24T01:13:06;18.33;;;8.55;;
74487;SDS011;63019;51.080;13.642;2023-06-24T01:14:08;23.30;;;8.85;;
74487;SDS011;63019;51.080;13.642;2023-06-24T01:15:09;21.17;;;9.25;;
74487;SDS011;63019;51.080;13.642;2023-06-24T01:16:14;23.55;;;9.35;;
74487;SDS011;63019;51.080;13.642;2023-06-24T01:19:10;22.85;;;9.05;;
74487;SDS011;63019;51.080;13.642;2023-06-24T01:20:31;18.35;;;8.23;;
74487;SDS011;63019;51.080;13.642;2023-06-24T01:24:59;19.00;;;9.10;;
74487;SDS011;63019;51.080;13.642;2023-06-24T01:28:23;28.73;;;9.60;;
74487;SDS011;63019;51.080;13.642;2023-06-24T01:31:28;18.07;;;8.47;;
74487;SDS011;63019;51.080;13.642;2023-06-24T01:32:42;25.02;;;8.90;;
74487;SDS011;63019;51.080;13.642;2023-06-24T01:33:58;24.48;;;8.63;;
74487;SDS011;63019;51.080;13.642;2023-06-24T01:35:25;20.42;;;8.27;;
74487;SDS011;63019;51.080;13.642;2023-06-24T01:36:31;21.25;;;8.80;;
74487;SDS011;63019;51.080;13.642;2023-06-24T01:38:47;21.10;;;8.85;;
74487;SDS011;63019;51.080;13.642;2023-06-24T01:39:56;18.00;;;8.32;;
74487;SDS011;63019;51.080;13.642;2023-06-24T01:41:24;16.55;;;8.13;;
74487;SDS011;63019;51.080;13.642;2023-06-24T01:42:27;17.65;;;8.73;;
74487;SDS011;63019;51.080;13.642;2023-06-24T01:43:32;16.07;;;9.10;;
74487;SDS011;63019;51.080;13.642;2023-06-24T01:44:35;27.35;;;9.20;;
74487;SDS011;63019;51.080;13.642;2023-06-24T01:45:51;22.30;;;9.40;;
74487;SDS011;63019;51.080;13.642;2023-06-24T01:46:57;23.10;;;8.77;;
74487;SDS011;63019;51.080;13.642;2023-06-24T01:48:02;25.23;;;9.98;;
74487;SDS011;63019;51.080;13.642;2023-06-24T01:49:13;18.25;;;8.70;;
74487;SDS011;63019;51.080;13.642;2023-06-24T01:50:18;18.33;;;9.25;;
74487;SDS011;63019;51.080;13.642;2023-06-24T01:51:23;19.58;;;9.23;;
74487;SDS011;63019;51.080;13.642;2023-06-24T01:52:27;21.70;;;9.20;;
74487;SDS011;63019;51.080;13.642;2023-06-24T01:53:32;20.10;;;10.10;;
74487;SDS011;63019;51.080;13.642;2023-06-24T01:54:40;22.00;;;9.70;;
74487;SDS011;63019;51.080;13.642;2023-06-24T01:55:43;23.25;;;9.65;;
74487;SDS011;63019;51.080;13.642;2023-06-24T01:56:47;21.02;;;9.82;;
74487;SDS011;63019;51.080;13.642;2023-06-24T01:57:50;20.23;;;9.40;;
74487;SDS011;63019;51.080;13.642;2023-06-24T01:58:54;21.33;;;9.82;;
74487;SDS011;63019;51.080;13.642;2023-06-24T01:59:59;19.90;;;10.05;;
74487;SDS011;63019;51.080;13.642;2023-06-24T02:01:02;22.15;;;9.90;;
74487;SDS011;63019;51.080;13.642;2023-06-24T02:02:05;21.33;;;9.95;;
74487;SDS011;63019;51.080;13.642;2023-06-24T02:03:08;23.85;;;9.70;;
74487;SDS011;63019;51.080;13.642;2023-06-24T02:04:11;21.20;;;9.63;;
74487;SDS011;63019;51.080;13.642;2023-06-24T02:05:14;28.50;;;10.33;;
74487;SDS011;63019;51.080;13.642;2023-06-24T02:06:18;26.58;;;9.80;;
74487;SDS011;63019;51.080;13.642;2023-06-24T02:07:22;18.13;;;9.30;;
74487;SDS011;63019;51.080;13.642;2023-06-24T02:08:26;22.15;;;9.32;;
74487;SDS011;63019;51.080;13.642;2023-06-24T02:09:32;29.40;;;10.65;;
74487;SDS011;63019;51.080;13.642;2023-06-24T02:10:37;22.13;;;9.32;;
74487;SDS011;63019;51.080;13.642;2023-06-24T02:11:40;19.70;;;9.25;;
74487;SDS011;63019;51.080;13.642;2023-06-24T02:12:44;20.48;;;9.70;;
74487;SDS011;63019;51.080;13.642;2023-06-24T02:13:48;23.05;;;9.73;;
74487;SDS011;63019;51.080;13.642;2023-06-24T02:14:52;22.55;;;9.63;;
74487;SDS011;63019;51.080;13.642;2023-06-24T02:15:55;24.73;;;10.00;;
74487;SDS011;63019;51.080;13.642;2023-06-24T02:16:57;29.85;;;10.30;;
74487;SDS011;63019;51.080;13.642;2023-06-24T02:18:02;29.15;;;10.63;;
74487;SDS011;63019;51.080;13.642;2023-06-24T02:19:06;26.92;;;9.90;;
74487;SDS011;63019;51.080;13.642;2023-06-24T02:20:09;23.05;;;9.80;;
74487;SDS011;63019;51.080;13.642;2023-06-24T02:21:12;30.77;;;9.90;;
74487;SDS011;63019;51.080;13.642;2023-06-24T02:22:15;25.73;;;10.05;;
74487;SDS011;63019;51.080;13.642;2023-06-24T02:23:19;22.30;;;10.15;;
74487;SDS011;63019;51.080;13.642;2023-06-24T02:24:22;25.17;;;9.63;;
74487;SDS011;63019;51.080;13.642;2023-06-24T02:25:25;26.80;;;9.65;;
74487;SDS011;63019;51.080;13.642;2023-06-24T02:26:28;26.77;;;9.50;;
74487;SDS011;63019;51.080;13.642;2023-06-24T02:27:30;24.58;;;10.38;;
74487;SDS011;63019;51.080;13.642;2023-06-24T02:28:33;20.92;;;10.00;;
74487;SDS011;63019;51.080;13.642;2023-06-24T02:29:36;22.83;;;9.52;;
74487;SDS011;63019;51.080;13.642;2023-06-24T02:30:41;20.65;;;9.43;;
74487;SDS011;63019;51.080;13.642;2023-06-24T02:31:43;22.08;;;9.90;;
74487;SDS011;63019;51.080;13.642;2023-06-24T02:32:46;30.52;;;10.43;;
74487;SDS011;63019;51.080;13.642;2023-06-24T02:33:48;22.50;;;9.32;;
74487;SDS011;63019;51.080;13.642;2023-06-24T02:34:50;21.25;;;9.60;;
74487;SDS011;63019;51.080;13.642;2023-06-24T02:35:55;23.45;;;9.68;;
74487;SDS011;63019;51.080;13.642;2023-06-24T02:36:56;23.33;;;9.93;;
74487;SDS011;63019;51.080;13.642;2023-06-24T02:37:58;25.05;;;10.15;;
74487;SDS011;63019;51.080;13.642;2023-06-24T02:39:00;21.77;;;9.75;;
74487;SDS011;63019;51.080;13.642;2023-06-24T02:40:02;29.90;;;10.30;;
74487;SDS011;63019;51.080;13.642;2023-06-24T02:41:06;24.25;;;9.63;;
74487;SDS011;63019;51.080;13.642;2023-06-24T02:42:08;22.70;;;9.25;;
74487;SDS011;63019;51.080;13.642;2023-06-24T02:43:10;22.10;;;9.55;;
74487;SDS011;63019;51.080;13.642;2023-06-24T02:44:12;27.05;;;9.13;;
74487;SDS011;63019;51.080;13.642;2023-06-24T02:45:14;25.67;;;9.50;;
74487;SDS011;63019;51.080;13.642;2023-06-24T02:46:17;21.30;;;9.23;;
74487;SDS011;63019;51.080;13.642;2023-06-24T02:47:20;18.30;;;9.40;;
74487;SDS011;63019;51.080;13.642;2023-06-24T02:48:23;24.65;;;9.60;;
74487;SDS011;63019;51.080;13.642;2023-06-24T02:49:25;16.65;;;8.80;;
74487;SDS011;63019;51.080;13.642;2023-06-24T02:50:28;21.13;;;9.95;;
74487;SDS011;63019;51.080;13.642;2023-06-24T02:51:31;25.23;;;9.75;;
74487;SDS011;63019;51.080;13.642;2023-06-24T02:52:35;21.30;;;9.18;;
74487;SDS011;63019;51.080;13.642;2023-06-24T02:53:38;18.05;;;9.38;;
74487;SDS011;63019;51.080;13.642;2023-06-24T02:54:41;26.08;;;8.98;;
74487;SDS011;63019;51.080;13.642;2023-06-24T02:55:43;18.70;;;9.60;;
74487;SDS011;63019;51.080;13.642;2023-06-24T02:56:46;23.27;;;9.10;;
74487;SDS011;63019;51.080;13.642;2023-06-24T02:57:49;21.43;;;10.13;;
74487;SDS011;63019;51.080;13.642;2023-06-24T02:58:52;26.25;;;8.82;;
74487;SDS011;63019;51.080;13.642;2023-06-24T02:59:55;41.15;;;9.43;;
74487;SDS011;63019;51.080;13.642;2023-06-24T03:00:59;19.88;;;9.18;;
74487;SDS011;63019;51.080;13.642;2023-06-24T03:02:04;24.52;;;9.20;;
74487;SDS011;63019;51.080;13.642;2023-06-24T03:03:06;15.80;;;8.98;;
74487;SDS011;63019;51.080;13.642;2023-06-24T03:04:08;19.20;;;8.73;;
74487;SDS011;63019;51.080;13.642;2023-06-24T03:05:10;22.77;;;8.95;;
74487;SDS011;63019;51.080;13.642;2023-06-24T03:06:12;21.55;;;9.05;;
74487;SDS011;63019;51.080;13.642;2023-06-24T03:07:19;22.65;;;9.57;;
74487;SDS011;63019;51.080;13.642;2023-06-24T03:08:22;21.77;;;8.60;;
74487;SDS011;63019;51.080;13.642;2023-06-24T03:09:31;24.17;;;9.27;;
74487;SDS011;63019;51.080;13.642;2023-06-24T03:10:36;16.70;;;8.20;;
74487;SDS011;63019;51.080;13.642;2023-06-24T03:11:45;27.02;;;9.05;;
74487;SDS011;63019;51.080;13.642;2023-06-24T03:12:47;19.90;;;9.30;;
74487;SDS011;63019;51.080;13.642;2023-06-24T03:13:49;29.75;;;8.90;;
74487;SDS011;63019;51.080;13.642;2023-06-24T03:14:51;23.38;;;8.73;;
74487;SDS011;63019;51.080;13.642;2023-06-24T03:15:53;17.83;;;8.43;;
74487;SDS011;63019;51.080;13.642;2023-06-24T03:16:54;18.05;;;9.00;;
74487;SDS011;63019;51.080;13.642;2023-06-24T03:17:56;18.88;;;8.77;;
74487;SDS011;63019;51.080;13.642;2023-06-24T03:18:58;20.40;;;8.80;;
74487;SDS011;63019;51.080;13.642;2023-06-24T03:20:00;21.38;;;8.75;;
74487;SDS011;63019;51.080;13.642;2023-06-24T03:21:02;16.13;;;8.25;;
74487;SDS011;63019;51.080;13.642;2023-06-24T03:22:04;20.02;;;8.30;;
74487;SDS011;63019;51.080;13.642;2023-06-24T03:23:06;20.10;;;8.75;;
74487;SDS011;63019;51.080;13.642;2023-06-24T03:24:08;23.15;;;9.48;;
74487;SDS011;63019;51.080;13.642;2023-06-24T03:25:10;16.52;;;8.73;;
74487;SDS011;63019;51.080;13.642;2023-06-24T03:26:12;24.85;;;9.80;;
74487;SDS011;63019;51.080;13.642;2023-06-24T03:27:14;21.25;;;8.80;;
74487;SDS011;63019;51.080;13.642;2023-06-24T03:28:16;18.80;;;8.82;;
74487;SDS011;63019;51.080;13.642;2023-06-24T03:29:18;23.70;;;10.43;;
74487;SDS011;63019;51.080;13.642;2023-06-24T03:30:19;18.13;;;8.48;;
74487;SDS011;63019;51.080;13.642;2023-06-24T03:31:21;20.27;;;9.07;;
74487;SDS011;63019;51.080;13.642;2023-06-24T03:32:24;26.25;;;9.13;;
74487;SDS011;63019;51.080;13.642;2023-06-24T03:33:26;22.95;;;9.55;;
74487;SDS011;63019;51.080;13.642;2023-06-24T03:34:28;18.60;;;8.75;;
74487;SDS011;63019;51.080;13.642;2023-06-24T03:35:30;21.70;;;7.93;;
74487;SDS011;63019;51.080;13.642;2023-06-24T03:36:34;20.58;;;8.98;;
74487;SDS011;63019;51.080;13.642;2023-06-24T03:37:39;15.70;;;7.85;;
74487;SDS011;63019;51.080;13.642;2023-06-24T03:38:41;19.95;;;8.00;;
74487;SDS011;63019;51.080;13.642;2023-06-24T03:39:43;23.33;;;8.50;;
74487;SDS011;63019;51.080;13.642;2023-06-24T03:40:45;21.83;;;7.80;;
74487;SDS011;63019;51.080;13.642;2023-06-24T03:41:47;20.77;;;8.90;;
74487;SDS011;63019;51.080;13.642;2023-06-24T03:42:49;13.88;;;7.95;;
74487;SDS011;63019;51.080;13.642;2023-06-24T03:43:50;22.50;;;8.35;;
74487;SDS011;63019;51.080;13.642;2023-06-24T03:44:52;19.25;;;8.55;;
74487;SDS011;63019;51.080;13.642;2023-06-24T03:45:54;17.10;;;8.20;;
74487;SDS011;63019;51.080;13.642;2023-06-24T03:46:56;22.50;;;7.85;;
74487;SDS011;63019;51.080;13.642;2023-06-24T03:47:58;20.55;;;8.77;;
74487;SDS011;63019;51.080;13.642;2023-06-24T03:49:00;22.90;;;8.18;;
74487;SDS011;63019;51.080;13.642;2023-06-24T03:50:02;17.30;;;7.97;;
74487;SDS011;63019;51.080;13.642;2023-06-24T03:51:04;18.75;;;8.27;;
74487;SDS011;63019;51.080;13.642;2023-06-24T03:52:06;20.20;;;8.18;;
74487;SDS011;63019;51.080;13.642;2023-06-24T03:53:10;17.67;;;7.88;;
74487;SDS011;63019;51.080;13.642;2023-06-24T03:54:12;16.48;;;7.68;;
74487;SDS011;63019;51.080;13.642;2023-06-24T03:55:14;24.70;;;8.27;;
74487;SDS011;63019;51.080;13.642;2023-06-24T03:56:16;19.45;;;7.72;;
74487;SDS011;63019;51.080;13.642;2023-06-24T03:57:18;20.75;;;8.20;;
74487;SDS011;63019;51.080;13.642;2023-06-24T03:58:20;25.25;;;8.18;;
74487;SDS011;63019;51.080;13.642;2023-06-24T03:59:22;19.35;;;8.13;;
74487;SDS011;63019;51.080;13.642;2023-06-24T04:00:24;18.37;;;7.67;;
74487;SDS011;63019;51.080;13.642;2023-06-24T04:01:26;16.75;;;7.47;;
74487;SDS011;63019;51.080;13.642;2023-06-24T04:02:32;15.10;;;7.55;;
74487;SDS011;63019;51.080;13.642;2023-06-24T04:03:34;19.50;;;8.15;;
74487;SDS011;63019;51.080;13.642;2023-06-24T04:04:37;16.55;;;7.57;;
74487;SDS011;63019;51.080;13.642;2023-06-24T04:05:38;22.40;;;8.23;;
74487;SDS011;63019;51.080;13.642;2023-06-24T04:06:40;19.48;;;7.63;;
74487;SDS011;63019;51.080;13.642;2023-06-24T04:07:42;16.23;;;7.38;;
74487;SDS011;63019;51.080;13.642;2023-06-24T04:08:48;14.77;;;7.13;;
74487;SDS011;63019;51.080;13.642;2023-06-24T04:09:50;15.00;;;6.78;;
74487;SDS011;63019;51.080;13.642;2023-06-24T04:10:52;19.33;;;7.03;;
74487;SDS011;63019;51.080;13.642;2023-06-24T04:11:53;20.25;;;7.20;;
74487;SDS011;63019;51.080;13.642;2023-06-24T04:12:55;14.43;;;7.07;;
74487;SDS011;63019;51.080;13.642;2023-06-24T04:13:57;13.27;;;6.43;;
74487;SDS011;63019;51.080;13.642;2023-06-24T04:14:59;20.15;;;6.30;;
74487;SDS011;63019;51.080;13.642;2023-06-24T04:16:01;21.20;;;7.07;;
74487;SDS011;63019;51.080;13.642;2023-06-24T04:17:03;13.70;;;6.25;;
74487;SDS011;63019;51.080;13.642;2023-06-24T04:18:05;15.35;;;6.85;;
74487;SDS011;63019;51.080;13.642;2023-06-24T04:19:06;15.45;;;6.72;;
74487;SDS011;63019;51.080;13.642;2023-06-24T04:20:08;13.93;;;6.75;;
74487;SDS011;63019;51.080;13.642;2023-06-24T04:21:11;17.73;;;6.40;;
74487;SDS011;63019;51.080;13.642;2023-06-24T04:22:13;18.27;;;6.53;;
74487;SDS011;63019;51.080;13.642;2023-06-24T04:23:14;13.63;;;7.05;;
74487;SDS011;63019;51.080;13.642;2023-06-24T04:24:16;17.25;;;6.80;;
74487;SDS011;63019;51.080;13.642;2023-06-24T04:25:18;17.65;;;7.03;;
74487;SDS011;63019;51.080;13.642;2023-06-24T04:26:20;16.38;;;7.10;;
74487;SDS011;63019;51.080;13.642;2023-06-24T04:27:22;15.20;;;6.90;;
74487;SDS011;63019;51.080;13.642;2023-06-24T04:28:24;19.52;;;6.78;;
74487;SDS011;63019;51.080;13.642;2023-06-24T04:29:25;16.98;;;6.63;;
74487;SDS011;63019;51.080;13.642;2023-06-24T04:30:27;13.95;;;7.03;;
74487;SDS011;63019;51.080;13.642;2023-06-24T04:31:29;16.13;;;6.67;;
74487;SDS011;63019;51.080;13.642;2023-06-24T04:32:31;16.42;;;6.60;;
74487;SDS011;63019;51.080;13.642;2023-06-24T04:33:33;13.27;;;6.53;;
74487;SDS011;63019;51.080;13.642;2023-06-24T04:34:35;20.92;;;7.32;;
74487;SDS011;63019;51.080;13.642;2023-06-24T04:35:36;21.23;;;6.72;;
74487;SDS011;63019;51.080;13.642;2023-06-24T04:36:39;21.13;;;7.13;;
74487;SDS011;63019;51.080;13.642;2023-06-24T04:37:41;12.68;;;6.82;;
74487;SDS011;63019;51.080;13.642;2023-06-24T04:38:42;18.17;;;6.95;;
74487;SDS011;63019;51.080;13.642;2023-06-24T04:39:44;19.88;;;7.57;;
74487;SDS011;63019;51.080;13.642;2023-06-24T04:40:46;14.95;;;7.40;;
74487;SDS011;63019;51.080;13.642;2023-06-24T04:41:48;15.63;;;7.60;;
74487;SDS011;63019;51.080;13.642;2023-06-24T04:42:50;19.88;;;7.47;;
74487;SDS011;63019;51.080;13.642;2023-06-24T04:43:52;16.35;;;6.97;;
74487;SDS011;63019;51.080;13.642;2023-06-24T04:44:55;18.05;;;8.10;;
74487;SDS011;63019;51.080;13.642;2023-06-24T04:45:56;19.08;;;7.13;;
74487;SDS011;63019;51.080;13.642;2023-06-24T04:46:58;18.50;;;7.45;;
74487;SDS011;63019;51.080;13.642;2023-06-24T04:48:00;20.58;;;8.02;;
74487;SDS011;63019;51.080;13.642;2023-06-24T04:49:02;22.65;;;7.90;;
74487;SDS011;63019;51.080;13.642;2023-06-24T04:50:04;18.50;;;7.93;;
74487;SDS011;63019;51.080;13.642;2023-06-24T04:51:06;16.45;;;8.18;;
74487;SDS011;63019;51.080;13.642;2023-06-24T04:52:08;19.10;;;8.30;;
74487;SDS011;63019;51.080;13.642;2023-06-24T04:53:11;22.48;;;9.02;;
74487;SDS011;63019;51.080;13.642;2023-06-24T04:54:14;19.20;;;8.63;;
74487;SDS011;63019;51.080;13.642;2023-06-24T04:55:15;21.25;;;8.90;;
74487;SDS011;63019;51.080;13.642;2023-06-24T04:56:17;18.05;;;8.70;;
74487;SDS011;63019;51.080;13.642;2023-06-24T04:57:28;23.45;;;9.00;;
74487;SDS011;63019;51.080;13.642;2023-06-24T04:58:32;19.08;;;9.05;;
74487;SDS011;63019;51.080;13.642;2023-06-24T04:59:34;23.85;;;9.82;;
74487;SDS011;63019;51.080;13.642;2023-06-24T05:00:36;19.65;;;9.80;;
74487;SDS011;63019;51.080;13.642;2023-06-24T05:01:38;23.15;;;9.73;;
74487;SDS011;63019;51.080;13.642;2023-06-24T05:02:40;21.93;;;9.80;;
74487;SDS011;63019;51.080;13.642;2023-06-24T05:03:42;22.08;;;10.63;;
74487;SDS011;63019;51.080;13.642;2023-06-24T05:04:44;25.85;;;10.30;;
74487;SDS011;63019;51.080;13.642;2023-06-24T05:05:46;21.15;;;10.68;;
74487;SDS011;63019;51.080;13.642;2023-06-24T05:06:47;25.98;;;11.25;;
74487;SDS011;63019;51.080;13.642;2023-06-24T05:07:49;26.40;;;10.75;;
74487;SDS011;63019;51.080;13.642;2023-06-24T05:08:51;23.85;;;10.60;;
74487;SDS011;63019;51.080;13.642;2023-06-24T05:09:53;26.30;;;10.02;;
74487;SDS011;63019;51.080;13.642;2023-06-24T05:10:55;20.95;;;10.45;;
74487;SDS011;63019;51.080;13.642;2023-06-24T05:11:57;21.38;;;11.10;;
74487;SDS011;63019;51.080;13.642;2023-06-24T05:12:59;25.73;;;11.53;;
74487;SDS011;63019;51.080;13.642;2023-06-24T05:14:00;26.67;;;11.50;;
74487;SDS011;63019;51.080;13.642;2023-06-24T05:15:02;23.95;;;11.15;;
74487;SDS011;63019;51.080;13.642;2023-06-24T05:16:05;29.63;;;10.82;;
74487;SDS011;63019;51.080;13.642;2023-06-24T05:17:07;19.77;;;10.73;;
74487;SDS011;63019;51.080;13.642;2023-06-24T05:18:09;20.27;;;10.30;;
74487;SDS011;63019;51.080;13.642;2023-06-24T05:19:11;23.38;;;11.35;;
74487;SDS011;63019;51.080;13.642;2023-06-24T05:20:13;19.40;;;10.48;;
74487;SDS011;63019;51.080;13.642;2023-06-24T05:21:15;24.35;;;11.98;;
74487;SDS011;63019;51.080;13.642;2023-06-24T05:22:17;26.02;;;10.68;;
74487;SDS011;63019;51.080;13.642;2023-06-24T05:23:18;24.70;;;11.80;;
74487;SDS011;63019;51.080;13.642;2023-06-24T05:24:20;26.02;;;11.52;;
74487;SDS011;63019;51.080;13.642;2023-06-24T05:25:22;26.10;;;10.98;;
74487;SDS011;63019;51.080;13.642;2023-06-24T05:26:24;22.52;;;11.52;;
74487;SDS011;63019;51.080;13.642;2023-06-24T05:27:26;34.35;;;11.63;;
74487;SDS011;63019;51.080;13.642;2023-06-24T05:28:28;25.35;;;11.20;;
74487;SDS011;63019;51.080;13.642;2023-06-24T05:29:30;20.13;;;10.40;;
74487;SDS011;63019;51.080;13.642;2023-06-24T05:30:32;21.80;;;11.32;;
74487;SDS011;63019;51.080;13.642;2023-06-24T05:31:34;28.60;;;10.93;;
74487;SDS011;63019;51.080;13.642;2023-06-24T05:32:36;26.65;;;11.93;;
74487;SDS011;63019;51.080;13.642;2023-06-24T05:33:38;28.97;;;11.07;;
74487;SDS011;63019;51.080;13.642;2023-06-24T05:34:39;26.08;;;11.88;;
74487;SDS011;63019;51.080;13.642;2023-06-24T05:35:44;29.65;;;12.43;;
74487;SDS011;63019;51.080;13.642;2023-06-24T05:36:46;24.08;;;12.35;;
74487;SDS011;63019;51.080;13.642;2023-06-24T05:37:48;24.77;;;12.30;;
74487;SDS011;63019;51.080;13.642;2023-06-24T05:38:50;24.27;;;11.57;;
74487;SDS011;63019;51.080;13.642;2023-06-24T05:39:52;28.65;;;11.90;;
74487;SDS011;63019;51.080;13.642;2023-06-24T05:40:54;27.33;;;11.48;;
74487;SDS011;63019;51.080;13.642;2023-06-24T05:41:56;26.40;;;11.80;;
74487;SDS011;63019;51.080;13.642;2023-06-24T05:42:58;31.10;;;12.80;;
74487;SDS011;63019;51.080;13.642;2023-06-24T05:44:03;28.50;;;12.07;;
74487;SDS011;63019;51.080;13.642;2023-06-24T05:45:06;27.80;;;12.30;;
74487;SDS011;63019;51.080;13.642;2023-06-24T05:46:08;23.00;;;11.15;;
74487;SDS011;63019;51.080;13.642;2023-06-24T05:47:10;23.98;;;12.65;;
74487;SDS011;63019;51.080;13.642;2023-06-24T05:48:12;21.60;;;11.32;;
74487;SDS011;63019;51.080;13.642;2023-06-24T05:49:15;28.08;;;12.65;;
74487;SDS011;63019;51.080;13.642;2023-06-24T05:50:17;34.42;;;12.45;;
74487;SDS011;63019;51.080;13.642;2023-06-24T05:51:19;27.35;;;12.13;;
74487;SDS011;63019;51.080;13.642;2023-06-24T05:52:24;30.80;;;11.85;;
74487;SDS011;63019;51.080;13.642;2023-06-24T05:53:26;26.55;;;12.13;;
74487;SDS011;63019;51.080;13.642;2023-06-24T05:54:28;27.97;;;11.70;;
74487;SDS011;63019;51.080;13.642;2023-06-24T05:55:29;30.85;;;12.57;;
74487;SDS011;63019;51.080;13.642;2023-06-24T05:56:31;32.67;;;12.43;;
74487;SDS011;63019;51.080;13.642;2023-06-24T05:57:33;31.08;;;12.50;;
74487;SDS011;63019;51.080;13.642;2023-06-24T05:58:35;25.50;;;13.02;;
74487;SDS011;63019;51.080;13.642;2023-06-24T05:59:37;25.95;;;12.05;;
74487;SDS011;63019;51.080;13.642;2023-06-24T06:00:39;27.63;;;12.80;;
74487;SDS011;63019;51.080;13.642;2023-06-24T06:01:41;28.92;;;12.45;;
74487;SDS011;63019;51.080;13.642;2023-06-24T06:02:42;24.23;;;11.57;;
74487;SDS011;63019;51.080;13.642;2023-06-24T06:03:45;25.15;;;11.88;;
74487;SDS011;63019;51.080;13.642;2023-06-24T06:04:47;27.37;;;11.93;;
74487;SDS011;63019;51.080;13.642;2023-06-24T06:05:49;26.80;;;11.80;;
74487;SDS011;63019;51.080;13.642;2023-06-24T06:06:51;27.23;;;12.30;;
74487;SDS011;63019;51.080;13.642;2023-06-24T06:07:53;27.30;;;12.32;;
74487;SDS011;63019;51.080;13.642;2023-06-24T06:08:55;29.50;;;12.18;;
74487;SDS011;63019;51.080;13.642;2023-06-24T06:09:58;32.35;;;12.02;;
74487;SDS011;63019;51.080;13.642;2023-06-24T06:11:01;30.80;;;13.00;;
74487;SDS011;63019;51.080;13.642;2023-06-24T06:12:03;31.33;;;12.30;;
74487;SDS011;63019;51.080;13.642;2023-06-24T06:13:06;24.27;;;11.50;;
74487;SDS011;63019;51.080;13.642;2023-06-24T06:14:07;24.98;;;11.55;;
74487;SDS011;63019;51.080;13.642;2023-06-24T06:15:09;30.50;;;11.83;;
74487;SDS011;63019;51.080;13.642;2023-06-24T06:16:11;25.67;;;11.48;;
74487;SDS011;63019;51.080;13.642;2023-06-24T06:17:14;29.27;;;10.82;;
74487;SDS011;63019;51.080;13.642;2023-06-24T06:18:16;25.25;;;10.82;;